createdAt,value
2022-10-13T00:01:18.336Z,7.48
2022-10-13T00:03:47.278Z,7.48
2022-10-13T00:06:23.130Z,7.53
2022-10-13T00:08:50.368Z,7.53
2022-10-13T00:11:26.170Z,7.51
2022-10-13T00:14:01.141Z,7.54
2022-10-13T00:16:30.210Z,7.51
2022-10-13T00:18:57.390Z,7.48
2022-10-13T00:21:26.302Z,7.51
2022-10-13T00:23:54.558Z,7.53
2022-10-13T00:26:23.868Z,7.53
2022-10-13T00:28:52.802Z,7.49
2022-10-13T00:31:27.660Z,7.51
2022-10-13T00:33:54.888Z,7.44
2022-10-13T00:36:23.269Z,7.43
2022-10-13T00:38:50.441Z,7.41
2022-10-13T00:41:17.887Z,7.40
2022-10-13T00:43:58.758Z,7.26
2022-10-13T00:46:31.872Z,7.36
2022-10-13T00:49:02.875Z,7.36
2022-10-13T00:51:33.354Z,7.30
2022-10-13T00:54:03.461Z,7.27
2022-10-13T00:56:30.582Z,7.28
2022-10-13T00:58:57.811Z,7.26
2022-10-13T01:01:24.611Z,7.25
2022-10-13T01:03:51.508Z,7.27
2022-10-13T01:06:23.449Z,7.21
2022-10-13T01:08:50.852Z,7.20
2022-10-13T01:12:08.428Z,7.14
2022-10-13T01:14:56.274Z,7.15
2022-10-13T01:17:55.417Z,7.14
2022-10-13T01:20:24.843Z,7.16
2022-10-13T01:23:06.825Z,7.15
2022-10-13T01:25:58.121Z,7.14
2022-10-13T01:28:44.494Z,7.11
2022-10-13T01:31:25.178Z,7.08
2022-10-13T01:34:09.132Z,7.08
2022-10-13T01:37:11.181Z,7.11
2022-10-13T01:39:45.264Z,7.09
2022-10-13T01:42:22.682Z,7.15
2022-10-13T01:44:58.965Z,7.10
2022-10-13T01:47:27.305Z,7.15
2022-10-13T01:49:55.483Z,7.09
2022-10-13T01:52:25.995Z,7.10
2022-10-13T01:54:53.875Z,7.07
2022-10-13T01:57:33.602Z,7.07
2022-10-13T02:00:04.239Z,7.07
2022-10-13T02:02:41.937Z,7.06
2022-10-13T02:05:26.931Z,7.11
2022-10-13T02:07:57.012Z,7.14
2022-10-13T02:10:51.521Z,7.12
2022-10-13T02:13:22.634Z,7.17
2022-10-13T02:15:53.829Z,7.12
2022-10-13T02:18:26.131Z,7.15
2022-10-13T02:20:54.355Z,7.17
2022-10-13T02:23:22.005Z,7.20
2022-10-13T02:25:50.904Z,7.15
2022-10-13T02:28:18.129Z,7.16
2022-10-13T02:30:46.343Z,7.16
2022-10-13T02:33:14.618Z,7.18
2022-10-13T02:35:42.209Z,7.17
2022-10-13T02:38:09.571Z,7.15
2022-10-13T02:40:36.645Z,7.12
2022-10-13T02:43:03.628Z,7.08
2022-10-13T02:45:36.773Z,7.09
2022-10-13T02:48:03.653Z,7.11
2022-10-13T02:50:30.436Z,7.09
2022-10-13T02:52:58.878Z,7.09
2022-10-13T02:55:25.748Z,7.06
2022-10-13T02:57:56.283Z,7.05
2022-10-13T03:00:24.193Z,7.00
2022-10-13T03:02:51.096Z,6.95
2022-10-13T03:05:17.965Z,6.87
2022-10-13T03:07:44.848Z,6.86
2022-10-13T03:10:11.740Z,6.82
2022-10-13T03:12:38.780Z,6.78
2022-10-13T03:15:05.915Z,6.77
2022-10-13T03:17:32.735Z,6.74
2022-10-13T03:19:59.862Z,6.73
2022-10-13T03:22:26.782Z,6.72
2022-10-13T03:24:53.773Z,6.71
2022-10-13T03:27:21.029Z,6.73
2022-10-13T03:29:47.859Z,6.70
2022-10-13T03:32:14.741Z,6.72
2022-10-13T03:34:41.495Z,6.72
2022-10-13T03:37:08.541Z,6.76
2022-10-13T03:39:41.359Z,6.76
2022-10-13T03:42:09.077Z,6.84
2022-10-13T03:44:36.928Z,6.81
2022-10-13T03:47:03.840Z,6.82
2022-10-13T03:49:30.700Z,6.79
2022-10-13T03:51:57.451Z,6.85
2022-10-13T03:54:24.892Z,6.89
2022-10-13T03:56:53.238Z,6.84
2022-10-13T03:59:20.028Z,6.85
2022-10-13T04:01:46.868Z,6.80
2022-10-13T04:04:14.005Z,6.80
2022-10-13T04:06:42.113Z,6.75
2022-10-13T04:09:09.666Z,6.74
2022-10-13T04:11:36.625Z,6.72
2022-10-13T04:14:04.056Z,6.76
2022-10-13T04:16:31.845Z,6.74
2022-10-13T04:19:04.649Z,6.73
2022-10-13T04:21:33.874Z,6.73
2022-10-13T04:24:02.065Z,6.68
2022-10-13T04:26:30.879Z,6.64
2022-10-13T04:28:58.583Z,6.54
2022-10-13T04:31:26.380Z,6.62
2022-10-13T04:33:53.838Z,6.63
2022-10-13T04:36:21.272Z,6.62
2022-10-13T04:38:50.357Z,6.62
2022-10-13T04:41:18.655Z,6.59
2022-10-13T04:43:50.576Z,6.55
2022-10-13T04:46:21.151Z,6.51
2022-10-13T04:48:49.366Z,6.52
2022-10-13T04:51:19.445Z,6.54
2022-10-13T04:53:46.451Z,6.51
2022-10-13T04:56:16.680Z,6.55
2022-10-13T04:58:45.473Z,6.56
2022-10-13T05:01:21.159Z,6.62
2022-10-13T05:03:59.416Z,6.66
2022-10-13T05:06:31.699Z,6.70
2022-10-13T05:08:58.692Z,6.67
2022-10-13T05:11:26.866Z,6.71
2022-10-13T05:13:54.614Z,6.73
2022-10-13T05:16:22.610Z,6.79
2022-10-13T05:18:50.996Z,6.85
2022-10-13T05:21:23.359Z,6.87
2022-10-13T05:23:54.070Z,6.89
2022-10-13T05:26:22.795Z,6.95
2022-10-13T05:28:49.802Z,6.95
2022-10-13T05:31:20.931Z,6.99
2022-10-13T05:33:49.132Z,7.00
2022-10-13T05:36:30.249Z,6.97
2022-10-13T05:39:00.299Z,6.98
2022-10-13T05:41:28.429Z,6.97
2022-10-13T05:43:59.604Z,7.05
2022-10-13T05:46:26.570Z,7.04
2022-10-13T05:48:53.573Z,7.11
2022-10-13T05:51:27.167Z,7.17
2022-10-13T05:54:09.916Z,7.28
2022-10-13T05:56:42.009Z,7.38
2022-10-13T05:59:12.539Z,7.41
2022-10-13T06:01:41.024Z,7.44
2022-10-13T06:04:17.259Z,7.56
2022-10-13T06:06:45.798Z,7.67
2022-10-13T06:09:12.816Z,7.65
2022-10-13T06:11:40.217Z,7.70
2022-10-13T06:14:06.966Z,7.79
2022-10-13T06:16:36.511Z,7.84
2022-10-13T06:19:05.109Z,7.84
2022-10-13T06:21:34.004Z,7.85
2022-10-13T06:24:01.474Z,7.87
2022-10-13T06:26:28.237Z,7.95
2022-10-13T06:28:59.331Z,8.12
2022-10-13T06:31:27.700Z,8.18
2022-10-13T06:33:54.939Z,8.27
2022-10-13T06:36:22.468Z,8.36
2022-10-13T06:38:49.422Z,8.47
2022-10-13T06:41:18.831Z,8.57
2022-10-13T06:43:45.738Z,8.66
2022-10-13T06:46:13.091Z,8.80
2022-10-13T06:48:39.935Z,8.91
2022-10-13T06:51:10.046Z,9.07
2022-10-13T06:53:37.375Z,9.20
2022-10-13T06:56:06.538Z,9.28
2022-10-13T06:58:35.539Z,9.32
2022-10-13T07:01:02.536Z,9.38
2022-10-13T07:03:29.538Z,9.40
2022-10-13T07:06:01.412Z,9.40
2022-10-13T07:08:28.242Z,9.37
2022-10-13T07:10:55.207Z,9.39
2022-10-13T07:15:49.065Z,9.51
2022-10-13T07:18:15.896Z,9.55
2022-10-13T07:20:42.924Z,9.64
2022-10-13T07:23:09.812Z,9.61
2022-10-13T07:25:37.756Z,9.76
2022-10-13T07:28:05.479Z,9.81
2022-10-13T07:30:32.482Z,9.87
2022-10-13T07:33:00.224Z,9.92
2022-10-13T07:35:30.693Z,10.14
2022-10-13T07:37:57.949Z,10.30
2022-10-13T07:40:25.149Z,10.42
2022-10-13T07:42:52.184Z,10.47
2022-10-13T07:45:19.004Z,10.52
2022-10-13T07:47:45.795Z,10.57
2022-10-13T07:50:12.824Z,10.58
2022-10-13T07:52:39.763Z,10.71
2022-10-13T07:55:09.398Z,10.81
2022-10-13T07:57:36.275Z,10.92
2022-10-13T08:00:06.380Z,11.05
2022-10-13T08:02:39.153Z,11.23
2022-10-13T08:05:06.709Z,11.41
2022-10-13T08:07:33.486Z,11.55
2022-10-13T08:10:00.255Z,11.53
2022-10-13T08:12:27.115Z,11.65
2022-10-13T08:14:54.234Z,11.92
2022-10-13T08:17:21.662Z,12.04
2022-10-13T08:19:51.147Z,12.12
2022-10-13T08:22:19.733Z,12.27
2022-10-13T08:24:46.569Z,12.55
2022-10-13T08:27:21.093Z,12.65
2022-10-13T08:29:48.573Z,12.83
2022-10-13T08:32:15.848Z,12.89
2022-10-13T08:34:42.802Z,12.86
2022-10-13T08:37:18.568Z,12.85
2022-10-13T08:39:45.603Z,12.75
2022-10-13T08:42:22.387Z,12.90
2022-10-13T08:47:54.727Z,13.36
2022-10-13T08:50:25.627Z,13.45
2022-10-13T08:53:17.755Z,13.67
2022-10-13T08:55:56.085Z,13.97
2022-10-13T08:58:32.353Z,14.20
2022-10-13T09:01:17.805Z,14.28
2022-10-13T09:03:57.324Z,14.53
2022-10-13T09:06:31.911Z,14.76
2022-10-13T09:09:10.439Z,15.06
2022-10-13T09:11:43.212Z,15.36
2022-10-13T09:14:19.081Z,15.50
2022-10-13T09:16:46.776Z,15.53
2022-10-13T09:19:22.701Z,15.60
2022-10-13T09:21:55.497Z,15.72
2022-10-13T09:24:24.091Z,15.66
2022-10-13T09:27:03.988Z,15.66
2022-10-13T09:29:32.552Z,16.01
2022-10-13T09:32:19.852Z,16.29
2022-10-13T09:34:48.107Z,16.28
2022-10-13T09:37:25.478Z,16.43
2022-10-13T09:40:22.036Z,16.51
2022-10-13T09:42:54.574Z,16.68
2022-10-13T09:45:37.422Z,16.73
2022-10-13T09:48:20.062Z,17.08
2022-10-13T09:50:51.970Z,16.93
2022-10-13T09:53:41.088Z,16.77
2022-10-13T09:56:23.813Z,17.07
2022-10-13T09:59:33.465Z,17.33
2022-10-13T10:02:28.653Z,17.27
2022-10-13T10:05:00.155Z,17.43
2022-10-13T10:07:31.879Z,17.46
2022-10-13T10:10:05.014Z,17.34
2022-10-13T10:12:36.676Z,17.42
2022-10-13T10:15:08.056Z,17.43
2022-10-13T10:17:49.109Z,17.43
2022-10-13T10:20:22.021Z,17.38
2022-10-13T10:23:27.847Z,17.38
2022-10-13T10:26:13.389Z,17.69
2022-10-13T10:28:51.982Z,17.90
2022-10-13T10:31:24.491Z,18.15
2022-10-13T10:34:08.419Z,18.46
2022-10-13T10:37:01.682Z,18.71
2022-10-13T10:39:36.216Z,18.70
2022-10-13T10:42:36.851Z,18.72
2022-10-13T10:45:13.136Z,18.82
2022-10-13T10:47:43.496Z,18.40
2022-10-13T10:50:16.255Z,18.45
2022-10-13T10:52:55.789Z,18.43
2022-10-13T10:55:31.742Z,18.58
2022-10-13T10:58:29.350Z,18.64
2022-10-13T11:01:11.433Z,18.68
2022-10-13T11:03:45.699Z,18.70
2022-10-13T11:06:12.594Z,18.83
2022-10-13T11:08:42.958Z,18.85
2022-10-13T11:11:37.487Z,18.76
2022-10-13T11:14:08.682Z,18.67
2022-10-13T11:16:39.555Z,18.65
2022-10-13T11:19:35.253Z,18.68
2022-10-13T11:22:02.034Z,18.64
2022-10-13T11:24:42.098Z,18.58
2022-10-13T11:27:17.062Z,18.74
2022-10-13T11:29:44.101Z,18.76
2022-10-13T11:32:31.382Z,18.80
2022-10-13T11:35:05.644Z,18.85
2022-10-13T11:38:07.597Z,18.95
2022-10-13T11:40:59.804Z,19.05
2022-10-13T11:43:42.108Z,19.32
2022-10-13T11:46:39.656Z,19.65
2022-10-13T11:49:23.132Z,19.89
2022-10-13T11:51:59.783Z,20.00
2022-10-13T11:54:44.604Z,20.10
2022-10-13T11:57:26.179Z,20.16
2022-10-13T11:59:56.079Z,20.35
2022-10-13T12:02:53.725Z,20.28
2022-10-13T12:05:22.789Z,20.31
2022-10-13T12:07:52.403Z,20.32
2022-10-13T12:10:32.732Z,19.88
2022-10-13T12:13:01.611Z,19.82
2022-10-13T12:15:42.286Z,19.93
2022-10-13T12:18:25.072Z,19.95
2022-10-13T12:20:56.951Z,19.79
2022-10-13T12:23:24.679Z,19.67
2022-10-13T12:25:57.443Z,19.67
2022-10-13T12:28:27.723Z,19.77
2022-10-13T12:30:57.901Z,19.81
2022-10-13T12:33:35.422Z,19.78
2022-10-13T12:36:18.257Z,19.79
2022-10-13T12:38:54.325Z,19.78
2022-10-13T12:41:30.845Z,19.70
2022-10-13T12:44:01.114Z,19.82
2022-10-13T12:46:41.847Z,19.79
2022-10-13T12:49:14.869Z,19.79
2022-10-13T12:51:43.508Z,19.70
2022-10-13T12:54:24.606Z,19.83
2022-10-13T12:56:56.279Z,19.85
2022-10-13T12:59:24.718Z,20.01
2022-10-13T13:02:03.713Z,19.91
2022-10-13T13:04:40.281Z,19.84
2022-10-13T13:07:25.731Z,19.98
2022-10-13T13:10:07.819Z,20.04
2022-10-13T13:12:38.360Z,20.11
2022-10-13T13:15:19.772Z,20.09
2022-10-13T13:18:02.268Z,19.87
2022-10-13T13:20:31.953Z,19.74
2022-10-13T13:22:59.607Z,19.68
2022-10-13T13:25:27.418Z,19.46
2022-10-13T13:27:54.373Z,19.42
2022-10-13T13:30:23.254Z,19.46
2022-10-13T13:32:50.096Z,19.44
2022-10-13T13:35:17.392Z,19.52
2022-10-13T13:37:50.014Z,19.54
2022-10-13T13:40:24.411Z,19.61
2022-10-13T13:42:52.838Z,19.51
2022-10-13T13:45:23.036Z,19.52
2022-10-13T13:47:51.436Z,19.41
2022-10-13T13:50:20.836Z,19.42
2022-10-13T13:52:56.473Z,19.28
2022-10-13T13:55:23.686Z,19.13
2022-10-13T13:57:50.552Z,19.05
2022-10-13T14:00:20.963Z,18.96
2022-10-13T14:02:53.312Z,18.89
2022-10-13T14:05:20.156Z,18.85
2022-10-13T14:07:48.475Z,18.83
2022-10-13T14:10:15.344Z,18.79
2022-10-13T14:12:42.201Z,18.74
2022-10-13T14:15:10.598Z,18.66
2022-10-13T14:17:37.648Z,18.56
2022-10-13T14:20:06.413Z,18.57
2022-10-13T14:22:38.633Z,18.58
2022-10-13T14:25:07.050Z,18.47
2022-10-13T14:27:35.276Z,18.46
2022-10-13T14:30:02.291Z,18.40
2022-10-13T14:32:29.180Z,18.36
2022-10-13T14:34:55.990Z,18.23
2022-10-13T14:37:23.899Z,18.11
2022-10-13T14:39:52.251Z,18.07
2022-10-13T14:42:20.705Z,18.04
2022-10-13T14:44:47.584Z,18.03
2022-10-13T14:47:14.741Z,18.01
2022-10-13T14:49:41.608Z,17.96
2022-10-13T14:52:09.194Z,17.96
2022-10-13T14:54:37.430Z,17.86
2022-10-13T14:57:08.314Z,17.85
2022-10-13T14:59:35.164Z,17.77
2022-10-13T15:02:01.958Z,17.60
2022-10-13T15:04:28.916Z,17.48
2022-10-13T15:06:56.086Z,17.36
2022-10-13T15:09:38.641Z,17.30
2022-10-13T15:12:15.433Z,17.17
2022-10-13T15:14:42.282Z,17.09
2022-10-13T15:17:09.057Z,17.04
2022-10-13T15:19:36.862Z,16.95
2022-10-13T15:22:04.569Z,16.94
2022-10-13T15:24:32.614Z,16.84
2022-10-13T15:27:01.939Z,16.77
2022-10-13T15:29:29.877Z,16.66
2022-10-13T15:32:11.391Z,16.49
2022-10-13T15:34:40.105Z,16.47
2022-10-13T15:37:07.443Z,16.42
2022-10-13T15:39:34.329Z,16.39
2022-10-13T15:42:01.288Z,16.29
2022-10-13T15:44:30.882Z,16.24
2022-10-13T15:47:07.838Z,16.18
2022-10-13T15:49:39.774Z,16.12
2022-10-13T15:52:06.717Z,16.05
2022-10-13T15:54:33.691Z,16.04
2022-10-13T15:57:00.497Z,16.03
2022-10-13T15:59:28.522Z,15.99
2022-10-13T16:01:55.299Z,15.96
2022-10-13T16:04:22.171Z,15.92
2022-10-13T16:06:49.027Z,15.84
2022-10-13T16:09:15.806Z,15.80
2022-10-13T16:11:42.700Z,15.80
2022-10-13T16:14:09.503Z,15.68
2022-10-13T16:16:36.405Z,15.74
2022-10-13T16:19:03.587Z,15.71
2022-10-13T16:21:30.481Z,15.70
2022-10-13T16:23:59.452Z,15.68
2022-10-13T16:26:26.594Z,15.67
2022-10-13T16:28:57.031Z,15.67
2022-10-13T16:31:24.569Z,15.65
2022-10-13T16:33:51.411Z,15.63
2022-10-13T16:36:19.475Z,15.59
2022-10-13T16:38:52.051Z,15.56
2022-10-13T16:41:19.157Z,15.54
2022-10-13T16:43:47.228Z,15.53
2022-10-13T16:46:16.399Z,15.52
2022-10-13T16:48:43.614Z,15.49
2022-10-13T16:51:13.629Z,15.48
2022-10-13T16:53:40.676Z,15.49
2022-10-13T16:56:07.960Z,15.47
2022-10-13T16:58:34.991Z,15.47
2022-10-13T17:01:08.849Z,15.50
2022-10-13T17:03:36.183Z,15.47
2022-10-13T17:06:02.933Z,15.47
2022-10-13T17:08:29.766Z,15.47
2022-10-13T17:10:59.685Z,15.46
2022-10-13T17:13:26.402Z,15.44
2022-10-13T17:15:53.961Z,15.42
2022-10-13T17:18:20.904Z,15.40
2022-10-13T17:20:54.349Z,15.35
2022-10-13T17:23:21.593Z,15.33
2022-10-13T17:25:48.823Z,15.30
2022-10-13T17:28:15.674Z,15.27
2022-10-13T17:30:42.582Z,15.22
2022-10-13T17:33:09.489Z,15.17
2022-10-13T17:35:36.384Z,15.10
2022-10-13T17:38:03.251Z,15.03
2022-10-13T17:40:32.681Z,15.00
2022-10-13T17:42:59.468Z,15.00
2022-10-13T17:45:27.017Z,14.98
2022-10-13T17:47:53.749Z,14.93
2022-10-13T17:50:22.426Z,14.89
2022-10-13T17:52:49.119Z,14.86
2022-10-13T17:55:15.808Z,14.84
2022-10-13T17:57:42.510Z,14.81
2022-10-13T18:00:09.475Z,14.80
2022-10-13T18:02:52.843Z,14.77
2022-10-13T18:05:19.631Z,14.76
2022-10-13T18:07:46.357Z,14.70
2022-10-13T18:10:15.217Z,14.66
2022-10-13T18:12:41.953Z,14.61
2022-10-13T18:15:08.905Z,14.58
2022-10-13T18:17:35.603Z,14.52
2022-10-13T18:20:02.306Z,14.48
2022-10-13T18:22:30.413Z,14.44
2022-10-13T18:24:58.747Z,14.44
2022-10-13T18:27:25.395Z,14.42
2022-10-13T18:29:52.099Z,14.39
2022-10-13T18:32:21.491Z,14.36
2022-10-13T18:34:48.170Z,14.33
2022-10-13T18:37:15.449Z,14.32
2022-10-13T18:39:42.188Z,14.30
2022-10-13T18:42:08.909Z,14.30
2022-10-13T18:44:49.639Z,14.30
2022-10-13T18:47:23.531Z,14.25
2022-10-13T18:49:50.563Z,14.23
2022-10-13T18:52:17.613Z,14.19
2022-10-13T18:54:45.651Z,14.15
2022-10-13T18:57:12.311Z,14.14
2022-10-13T18:59:39.094Z,14.14
2022-10-13T19:02:05.763Z,14.12
2022-10-13T19:04:32.436Z,14.12
2022-10-13T19:06:59.127Z,14.08
2022-10-13T19:09:26.544Z,14.07
2022-10-13T19:11:55.317Z,14.07
2022-10-13T19:14:23.196Z,14.04
2022-10-13T19:16:50.076Z,14.02
2022-10-13T19:19:16.789Z,14.01
2022-10-13T19:21:43.454Z,13.99
2022-10-13T19:24:10.825Z,13.96
2022-10-13T19:26:37.809Z,13.95
2022-10-13T19:29:09.123Z,13.94
2022-10-13T19:31:36.767Z,13.96
2022-10-13T19:34:06.776Z,13.96
2022-10-13T19:36:35.399Z,13.96
2022-10-13T19:39:04.332Z,13.94
2022-10-13T19:41:31.937Z,13.92
2022-10-13T19:43:59.121Z,13.90
2022-10-13T19:46:33.531Z,13.85
2022-10-13T19:49:00.640Z,13.81
2022-10-13T19:51:27.383Z,13.77
2022-10-13T19:53:54.149Z,13.73
2022-10-13T19:56:25.889Z,13.71
2022-10-13T19:58:53.310Z,13.68
2022-10-13T20:01:22.251Z,13.65
2022-10-13T20:03:49.059Z,13.63
2022-10-13T20:06:16.067Z,13.59
2022-10-13T20:08:43.302Z,13.55
2022-10-13T20:11:10.987Z,13.51
2022-10-13T20:13:37.622Z,13.46
2022-10-13T20:16:09.040Z,13.42
2022-10-13T20:18:36.103Z,13.38
2022-10-13T20:21:07.022Z,13.32
2022-10-13T20:23:34.649Z,13.29
2022-10-13T20:26:02.041Z,13.24
2022-10-13T20:28:32.842Z,13.22
2022-10-13T20:31:03.826Z,13.19
2022-10-13T20:33:30.957Z,13.14
2022-10-13T20:36:00.792Z,13.13
2022-10-13T20:38:29.241Z,13.12
2022-10-13T20:41:02.797Z,13.10
2022-10-13T20:43:29.493Z,13.07
2022-10-13T20:46:03.895Z,13.06
2022-10-13T20:48:51.029Z,13.01
2022-10-13T20:51:19.643Z,12.98
2022-10-13T20:53:46.977Z,12.99
2022-10-13T20:56:15.757Z,12.97
2022-10-13T20:58:42.460Z,12.98
2022-10-13T21:01:09.655Z,12.98
2022-10-13T21:03:36.741Z,12.97
2022-10-13T21:06:05.292Z,12.98
2022-10-13T21:08:32.923Z,12.95
2022-10-13T21:11:06.946Z,12.95
2022-10-13T21:13:34.164Z,12.94
2022-10-13T21:16:21.103Z,12.94
2022-10-13T21:18:49.190Z,12.92
2022-10-13T21:21:26.205Z,12.89
2022-10-13T21:23:53.724Z,12.87
2022-10-13T21:26:22.170Z,12.86
2022-10-13T21:28:50.086Z,12.84
2022-10-13T21:31:18.306Z,12.82
2022-10-13T21:33:45.222Z,12.78
2022-10-13T21:36:11.916Z,12.75
2022-10-13T21:38:41.536Z,12.74
2022-10-13T21:41:09.696Z,12.72
2022-10-13T21:43:36.391Z,12.70
2022-10-13T21:46:13.917Z,12.68
2022-10-13T21:48:44.111Z,12.68
2022-10-13T21:51:14.866Z,12.63
2022-10-13T21:53:41.818Z,12.61
2022-10-13T21:56:09.552Z,12.60
2022-10-13T21:58:36.248Z,12.60
2022-10-13T22:01:03.996Z,12.59
2022-10-13T22:03:30.818Z,12.56
2022-10-13T22:05:57.458Z,12.54
2022-10-13T22:08:37.662Z,12.51
2022-10-13T22:11:13.053Z,12.49
2022-10-13T22:13:40.100Z,12.46
2022-10-13T22:16:09.415Z,12.44
2022-10-13T22:18:40.913Z,12.44
2022-10-13T22:21:08.573Z,12.43
2022-10-13T22:23:35.244Z,12.42
2022-10-13T22:26:01.967Z,12.45
2022-10-13T22:28:32.287Z,12.44
2022-10-13T22:31:08.310Z,12.44
2022-10-13T22:33:35.854Z,12.44
2022-10-13T22:36:09.064Z,12.43
2022-10-13T22:38:35.990Z,12.42
2022-10-13T22:41:04.649Z,12.42
2022-10-13T22:43:31.570Z,12.42
2022-10-13T22:46:18.122Z,12.42
2022-10-13T22:48:44.885Z,12.46
2022-10-13T22:51:14.955Z,12.48
2022-10-13T22:53:41.883Z,12.49
2022-10-13T22:56:09.637Z,12.52
2022-10-13T22:58:37.584Z,12.54
2022-10-13T23:01:05.577Z,12.59
2022-10-13T23:03:35.039Z,12.63
2022-10-13T23:06:02.007Z,12.63
2022-10-13T23:08:28.963Z,12.64
2022-10-13T23:10:55.675Z,12.67
2022-10-13T23:13:22.382Z,12.68
2022-10-13T23:15:50.368Z,12.64
2022-10-13T23:18:17.176Z,12.69
2022-10-13T23:20:43.933Z,12.69
2022-10-13T23:23:13.551Z,12.68
2022-10-13T23:25:40.200Z,12.69
2022-10-13T23:28:06.861Z,12.69
2022-10-13T23:30:33.654Z,12.68
2022-10-13T23:33:00.393Z,12.67
2022-10-13T23:35:27.052Z,12.68
2022-10-13T23:37:53.854Z,12.68
2022-10-13T23:40:20.551Z,12.66
2022-10-13T23:42:47.249Z,12.64
2022-10-13T23:45:14.068Z,12.62
2022-10-13T23:47:40.762Z,12.61
2022-10-13T23:50:07.547Z,12.56
2022-10-13T23:52:34.245Z,12.54
2022-10-13T23:55:00.890Z,12.50
2022-10-13T23:57:29.870Z,12.46
2022-10-13T23:59:56.498Z,12.45
